sensor_id;sensor_type;location;lat;lon;timestamp;P1;durP1;ratioP1;P2;durP2;ratioP2
71116;SDS011;58775;46.992;9.518;2023-11-21T00:01:29;6.22;;;1.85;;
71116;SDS011;58775;46.992;9.518;2023-11-21T00:03:30;6.25;;;1.48;;
71116;SDS011;58775;46.992;9.518;2023-11-21T00:05:31;7.10;;;1.42;;
71116;SDS011;58775;46.992;9.518;2023-11-21T00:07:32;3.20;;;1.00;;
71116;SDS011;58775;46.992;9.518;2023-11-21T00:09:33;4.32;;;1.13;;
71116;SDS011;58775;46.992;9.518;2023-11-21T00:11:35;7.30;;;1.30;;
71116;SDS011;58775;46.992;9.518;2023-11-21T00:13:35;4.35;;;1.30;;
71116;SDS011;58775;46.992;9.518;2023-11-21T00:15:36;4.65;;;1.52;;
71116;SDS011;58775;46.992;9.518;2023-11-21T00:17:37;3.93;;;1.10;;
71116;SDS011;58775;46.992;9.518;2023-11-21T00:19:39;4.78;;;1.48;;
71116;SDS011;58775;46.992;9.518;2023-11-21T00:21:40;3.30;;;1.33;;
71116;SDS011;58775;46.992;9.518;2023-11-21T00:23:40;6.17;;;1.57;;
71116;SDS011;58775;46.992;9.518;2023-11-21T00:25:41;5.93;;;1.25;;
71116;SDS011;58775;46.992;9.518;2023-11-21T00:27:42;4.93;;;1.30;;
71116;SDS011;58775;46.992;9.518;2023-11-21T00:29:43;6.10;;;1.30;;
71116;SDS011;58775;46.992;9.518;2023-11-21T00:31:44;6.40;;;1.30;;
71116;SDS011;58775;46.992;9.518;2023-11-21T00:33:46;4.43;;;1.33;;
71116;SDS011;58775;46.992;9.518;2023-11-21T00:35:47;8.47;;;1.63;;
71116;SDS011;58775;46.992;9.518;2023-11-21T00:37:48;2.97;;;1.00;;
71116;SDS011;58775;46.992;9.518;2023-11-21T00:39:50;7.90;;;1.52;;
71116;SDS011;58775;46.992;9.518;2023-11-21T00:41:52;4.63;;;1.00;;
71116;SDS011;58775;46.992;9.518;2023-11-21T00:43:53;2.22;;;0.80;;
71116;SDS011;58775;46.992;9.518;2023-11-21T00:45:55;8.23;;;1.20;;
71116;SDS011;58775;46.992;9.518;2023-11-21T00:47:56;3.78;;;1.27;;
71116;SDS011;58775;46.992;9.518;2023-11-21T00:49:58;6.97;;;1.13;;
71116;SDS011;58775;46.992;9.518;2023-11-21T00:51:59;5.03;;;1.05;;
71116;SDS011;58775;46.992;9.518;2023-11-21T00:54:01;4.70;;;1.13;;
71116;SDS011;58775;46.992;9.518;2023-11-21T00:56:02;5.90;;;1.20;;
71116;SDS011;58775;46.992;9.518;2023-11-21T00:58:03;7.22;;;1.13;;
71116;SDS011;58775;46.992;9.518;2023-11-21T01:00:05;5.77;;;1.47;;
71116;SDS011;58775;46.992;9.518;2023-11-21T01:02:17;6.00;;;1.23;;
71116;SDS011;58775;46.992;9.518;2023-11-21T01:04:18;6.85;;;1.52;;
71116;SDS011;58775;46.992;9.518;2023-11-21T01:06:19;5.70;;;1.53;;
71116;SDS011;58775;46.992;9.518;2023-11-21T01:08:19;6.53;;;1.45;;
71116;SDS011;58775;46.992;9.518;2023-11-21T01:10:21;5.75;;;1.58;;
71116;SDS011;58775;46.992;9.518;2023-11-21T01:12:22;5.43;;;1.52;;
71116;SDS011;58775;46.992;9.518;2023-11-21T01:14:25;4.53;;;1.70;;
71116;SDS011;58775;46.992;9.518;2023-11-21T01:16:27;6.25;;;1.27;;
71116;SDS011;58775;46.992;9.518;2023-11-21T01:18:28;4.68;;;1.23;;
71116;SDS011;58775;46.992;9.518;2023-11-21T01:20:29;4.65;;;1.35;;
71116;SDS011;58775;46.992;9.518;2023-11-21T01:22:30;4.60;;;1.30;;
71116;SDS011;58775;46.992;9.518;2023-11-21T01:24:31;3.42;;;1.13;;
71116;SDS011;58775;46.992;9.518;2023-11-21T01:26:32;5.40;;;1.13;;
71116;SDS011;58775;46.992;9.518;2023-11-21T01:28:33;5.25;;;1.42;;
71116;SDS011;58775;46.992;9.518;2023-11-21T01:30:34;4.97;;;1.40;;
71116;SDS011;58775;46.992;9.518;2023-11-21T01:32:36;4.20;;;1.30;;
71116;SDS011;58775;46.992;9.518;2023-11-21T01:34:37;4.72;;;1.92;;
71116;SDS011;58775;46.992;9.518;2023-11-21T01:36:38;3.53;;;1.00;;
71116;SDS011;58775;46.992;9.518;2023-11-21T01:38:39;4.65;;;1.27;;
71116;SDS011;58775;46.992;9.518;2023-11-21T01:40:40;4.28;;;1.05;;
71116;SDS011;58775;46.992;9.518;2023-11-21T01:42:41;4.07;;;1.33;;
71116;SDS011;58775;46.992;9.518;2023-11-21T01:44:43;6.43;;;1.45;;
71116;SDS011;58775;46.992;9.518;2023-11-21T01:46:45;4.03;;;1.10;;
71116;SDS011;58775;46.992;9.518;2023-11-21T01:48:48;5.57;;;1.10;;
71116;SDS011;58775;46.992;9.518;2023-11-21T01:50:49;3.88;;;1.00;;
71116;SDS011;58775;46.992;9.518;2023-11-21T01:52:51;4.03;;;1.35;;
71116;SDS011;58775;46.992;9.518;2023-11-21T01:54:53;3.90;;;1.10;;
71116;SDS011;58775;46.992;9.518;2023-11-21T01:56:54;6.15;;;1.33;;
71116;SDS011;58775;46.992;9.518;2023-11-21T01:58:55;4.90;;;1.30;;
71116;SDS011;58775;46.992;9.518;2023-11-21T02:00:57;2.85;;;1.15;;
71116;SDS011;58775;46.992;9.518;2023-11-21T02:02:58;5.22;;;1.10;;
71116;SDS011;58775;46.992;9.518;2023-11-21T02:04:59;3.72;;;1.40;;
71116;SDS011;58775;46.992;9.518;2023-11-21T02:07:02;3.40;;;1.10;;
71116;SDS011;58775;46.992;9.518;2023-11-21T02:09:06;4.70;;;1.20;;
71116;SDS011;58775;46.992;9.518;2023-11-21T02:11:07;4.53;;;1.27;;
71116;SDS011;58775;46.992;9.518;2023-11-21T02:13:07;4.50;;;1.27;;
71116;SDS011;58775;46.992;9.518;2023-11-21T02:15:09;7.53;;;1.33;;
71116;SDS011;58775;46.992;9.518;2023-11-21T02:17:15;5.90;;;1.38;;
71116;SDS011;58775;46.992;9.518;2023-11-21T02:19:18;4.18;;;1.42;;
71116;SDS011;58775;46.992;9.518;2023-11-21T02:21:23;5.93;;;1.63;;
71116;SDS011;58775;46.992;9.518;2023-11-21T02:23:25;6.88;;;1.77;;
71116;SDS011;58775;46.992;9.518;2023-11-21T02:25:29;6.80;;;1.80;;
71116;SDS011;58775;46.992;9.518;2023-11-21T02:27:32;4.05;;;1.40;;
71116;SDS011;58775;46.992;9.518;2023-11-21T02:29:32;5.80;;;1.70;;
71116;SDS011;58775;46.992;9.518;2023-11-21T02:31:34;6.40;;;1.33;;
71116;SDS011;58775;46.992;9.518;2023-11-21T02:33:35;6.97;;;1.50;;
71116;SDS011;58775;46.992;9.518;2023-11-21T02:35:37;5.93;;;1.48;;
71116;SDS011;58775;46.992;9.518;2023-11-21T02:37:45;5.17;;;1.50;;
71116;SDS011;58775;46.992;9.518;2023-11-21T02:39:46;3.35;;;1.20;;
71116;SDS011;58775;46.992;9.518;2023-11-21T02:41:46;6.03;;;1.48;;
71116;SDS011;58775;46.992;9.518;2023-11-21T02:43:47;5.53;;;1.77;;
71116;SDS011;58775;46.992;9.518;2023-11-21T02:45:49;4.70;;;1.70;;
71116;SDS011;58775;46.992;9.518;2023-11-21T02:47:50;6.80;;;2.03;;
71116;SDS011;58775;46.992;9.518;2023-11-21T02:49:53;6.88;;;1.90;;
71116;SDS011;58775;46.992;9.518;2023-11-21T02:51:54;5.40;;;1.77;;
71116;SDS011;58775;46.992;9.518;2023-11-21T02:53:55;3.38;;;1.20;;
71116;SDS011;58775;46.992;9.518;2023-11-21T02:56:02;4.65;;;1.52;;
71116;SDS011;58775;46.992;9.518;2023-11-21T02:58:03;7.47;;;1.73;;
71116;SDS011;58775;46.992;9.518;2023-11-21T03:00:04;5.23;;;1.50;;
71116;SDS011;58775;46.992;9.518;2023-11-21T03:02:08;7.20;;;2.00;;
71116;SDS011;58775;46.992;9.518;2023-11-21T03:04:09;5.28;;;1.48;;
71116;SDS011;58775;46.992;9.518;2023-11-21T03:06:09;7.43;;;1.47;;
71116;SDS011;58775;46.992;9.518;2023-11-21T03:08:10;4.80;;;1.58;;
71116;SDS011;58775;46.992;9.518;2023-11-21T03:10:11;4.67;;;1.40;;
71116;SDS011;58775;46.992;9.518;2023-11-21T03:12:12;6.00;;;1.42;;
71116;SDS011;58775;46.992;9.518;2023-11-21T03:14:13;4.47;;;1.30;;
71116;SDS011;58775;46.992;9.518;2023-11-21T03:16:14;5.20;;;1.47;;
71116;SDS011;58775;46.992;9.518;2023-11-21T03:18:15;5.07;;;1.30;;
71116;SDS011;58775;46.992;9.518;2023-11-21T03:20:16;7.88;;;1.65;;
71116;SDS011;58775;46.992;9.518;2023-11-21T03:22:17;4.75;;;1.25;;
71116;SDS011;58775;46.992;9.518;2023-11-21T03:24:19;4.90;;;1.52;;
71116;SDS011;58775;46.992;9.518;2023-11-21T03:26:20;6.13;;;1.67;;
71116;SDS011;58775;46.992;9.518;2023-11-21T03:28:21;6.22;;;1.58;;
71116;SDS011;58775;46.992;9.518;2023-11-21T03:30:22;5.93;;;1.67;;
71116;SDS011;58775;46.992;9.518;2023-11-21T03:32:23;5.93;;;1.40;;
71116;SDS011;58775;46.992;9.518;2023-11-21T03:34:27;5.57;;;1.42;;
71116;SDS011;58775;46.992;9.518;2023-11-21T03:36:29;5.07;;;1.50;;
71116;SDS011;58775;46.992;9.518;2023-11-21T03:38:30;3.67;;;1.30;;
71116;SDS011;58775;46.992;9.518;2023-11-21T03:40:30;4.60;;;1.45;;
71116;SDS011;58775;46.992;9.518;2023-11-21T03:42:32;5.72;;;1.73;;
71116;SDS011;58775;46.992;9.518;2023-11-21T03:44:33;5.45;;;1.42;;
71116;SDS011;58775;46.992;9.518;2023-11-21T03:46:33;5.83;;;1.90;;
71116;SDS011;58775;46.992;9.518;2023-11-21T03:48:34;5.55;;;1.70;;
71116;SDS011;58775;46.992;9.518;2023-11-21T03:50:35;6.47;;;1.77;;
71116;SDS011;58775;46.992;9.518;2023-11-21T03:52:36;3.75;;;1.10;;
71116;SDS011;58775;46.992;9.518;2023-11-21T03:54:37;3.83;;;1.20;;
71116;SDS011;58775;46.992;9.518;2023-11-21T03:56:40;5.93;;;1.50;;
71116;SDS011;58775;46.992;9.518;2023-11-21T03:58:41;5.67;;;1.53;;
71116;SDS011;58775;46.992;9.518;2023-11-21T04:00:42;4.97;;;1.58;;
71116;SDS011;58775;46.992;9.518;2023-11-21T04:02:42;5.77;;;1.53;;
71116;SDS011;58775;46.992;9.518;2023-11-21T04:04:43;5.72;;;1.83;;
71116;SDS011;58775;46.992;9.518;2023-11-21T04:06:44;7.30;;;1.50;;
71116;SDS011;58775;46.992;9.518;2023-11-21T04:08:45;6.13;;;1.55;;
71116;SDS011;58775;46.992;9.518;2023-11-21T04:10:46;9.95;;;1.63;;
71116;SDS011;58775;46.992;9.518;2023-11-21T04:12:47;4.80;;;1.60;;
71116;SDS011;58775;46.992;9.518;2023-11-21T04:14:48;7.82;;;1.50;;
71116;SDS011;58775;46.992;9.518;2023-11-21T04:16:49;5.35;;;1.35;;
71116;SDS011;58775;46.992;9.518;2023-11-21T04:18:50;4.57;;;1.47;;
71116;SDS011;58775;46.992;9.518;2023-11-21T04:20:51;6.60;;;1.75;;
71116;SDS011;58775;46.992;9.518;2023-11-21T04:22:52;7.05;;;1.55;;
71116;SDS011;58775;46.992;9.518;2023-11-21T04:24:52;6.67;;;1.40;;
71116;SDS011;58775;46.992;9.518;2023-11-21T04:26:54;3.45;;;1.30;;
71116;SDS011;58775;46.992;9.518;2023-11-21T04:28:55;5.72;;;1.30;;
71116;SDS011;58775;46.992;9.518;2023-11-21T04:30:56;5.03;;;1.43;;
71116;SDS011;58775;46.992;9.518;2023-11-21T04:32:57;3.55;;;1.20;;
71116;SDS011;58775;46.992;9.518;2023-11-21T04:34:57;7.20;;;1.30;;
71116;SDS011;58775;46.992;9.518;2023-11-21T04:36:58;4.73;;;1.30;;
71116;SDS011;58775;46.992;9.518;2023-11-21T04:39:00;5.28;;;1.73;;
71116;SDS011;58775;46.992;9.518;2023-11-21T04:41:01;4.85;;;1.50;;
71116;SDS011;58775;46.992;9.518;2023-11-21T04:43:02;4.17;;;1.30;;
71116;SDS011;58775;46.992;9.518;2023-11-21T04:45:04;5.13;;;1.77;;
71116;SDS011;58775;46.992;9.518;2023-11-21T04:47:09;6.78;;;1.38;;
71116;SDS011;58775;46.992;9.518;2023-11-21T04:49:10;4.68;;;1.67;;
71116;SDS011;58775;46.992;9.518;2023-11-21T04:51:11;6.57;;;1.65;;
71116;SDS011;58775;46.992;9.518;2023-11-21T04:53:13;4.00;;;1.27;;
71116;SDS011;58775;46.992;9.518;2023-11-21T04:55:14;6.28;;;1.67;;
71116;SDS011;58775;46.992;9.518;2023-11-21T04:57:15;4.78;;;1.70;;
71116;SDS011;58775;46.992;9.518;2023-11-21T04:59:18;4.13;;;1.63;;
71116;SDS011;58775;46.992;9.518;2023-11-21T05:01:19;6.00;;;1.80;;
71116;SDS011;58775;46.992;9.518;2023-11-21T05:03:20;4.53;;;1.50;;
71116;SDS011;58775;46.992;9.518;2023-11-21T05:05:21;6.13;;;1.60;;
71116;SDS011;58775;46.992;9.518;2023-11-21T05:07:22;4.80;;;1.67;;
71116;SDS011;58775;46.992;9.518;2023-11-21T05:09:23;8.82;;;1.77;;
71116;SDS011;58775;46.992;9.518;2023-11-21T05:11:25;6.60;;;2.15;;
71116;SDS011;58775;46.992;9.518;2023-11-21T05:13:26;6.30;;;1.70;;
71116;SDS011;58775;46.992;9.518;2023-11-21T05:15:27;5.88;;;1.73;;
71116;SDS011;58775;46.992;9.518;2023-11-21T05:17:28;6.38;;;1.60;;
71116;SDS011;58775;46.992;9.518;2023-11-21T05:19:29;8.45;;;2.17;;
71116;SDS011;58775;46.992;9.518;2023-11-21T05:21:30;6.10;;;1.77;;
71116;SDS011;58775;46.992;9.518;2023-11-21T05:23:34;4.82;;;1.63;;
71116;SDS011;58775;46.992;9.518;2023-11-21T05:25:35;6.35;;;1.63;;
71116;SDS011;58775;46.992;9.518;2023-11-21T05:27:36;6.75;;;2.00;;
71116;SDS011;58775;46.992;9.518;2023-11-21T05:29:37;5.17;;;1.70;;
71116;SDS011;58775;46.992;9.518;2023-11-21T05:31:38;4.22;;;1.58;;
71116;SDS011;58775;46.992;9.518;2023-11-21T05:33:38;6.22;;;2.20;;
71116;SDS011;58775;46.992;9.518;2023-11-21T05:35:39;4.50;;;1.70;;
71116;SDS011;58775;46.992;9.518;2023-11-21T05:37:40;6.25;;;1.75;;
71116;SDS011;58775;46.992;9.518;2023-11-21T05:39:42;7.05;;;1.92;;
71116;SDS011;58775;46.992;9.518;2023-11-21T05:41:43;6.05;;;2.03;;
71116;SDS011;58775;46.992;9.518;2023-11-21T05:43:43;7.03;;;2.17;;
71116;SDS011;58775;46.992;9.518;2023-11-21T05:45:44;5.55;;;2.13;;
71116;SDS011;58775;46.992;9.518;2023-11-21T05:47:45;6.55;;;2.55;;
71116;SDS011;58775;46.992;9.518;2023-11-21T05:49:47;6.72;;;1.77;;
71116;SDS011;58775;46.992;9.518;2023-11-21T05:51:50;5.32;;;1.80;;
71116;SDS011;58775;46.992;9.518;2023-11-21T05:53:54;6.18;;;1.85;;
71116;SDS011;58775;46.992;9.518;2023-11-21T05:55:55;6.83;;;1.90;;
71116;SDS011;58775;46.992;9.518;2023-11-21T05:57:55;6.15;;;2.22;;
71116;SDS011;58775;46.992;9.518;2023-11-21T05:59:56;7.13;;;2.00;;
71116;SDS011;58775;46.992;9.518;2023-11-21T06:01:57;5.88;;;1.95;;
71116;SDS011;58775;46.992;9.518;2023-11-21T06:03:59;4.28;;;1.52;;
71116;SDS011;58775;46.992;9.518;2023-11-21T06:06:00;5.25;;;1.70;;
71116;SDS011;58775;46.992;9.518;2023-11-21T06:08:00;7.80;;;2.05;;
71116;SDS011;58775;46.992;9.518;2023-11-21T06:10:02;6.95;;;2.05;;
71116;SDS011;58775;46.992;9.518;2023-11-21T06:12:07;7.03;;;1.98;;
71116;SDS011;58775;46.992;9.518;2023-11-21T06:14:08;5.03;;;1.83;;
71116;SDS011;58775;46.992;9.518;2023-11-21T06:16:09;8.02;;;2.00;;
71116;SDS011;58775;46.992;9.518;2023-11-21T06:18:10;7.80;;;2.33;;
71116;SDS011;58775;46.992;9.518;2023-11-21T06:20:11;7.55;;;1.98;;
71116;SDS011;58775;46.992;9.518;2023-11-21T06:22:15;7.85;;;2.00;;
71116;SDS011;58775;46.992;9.518;2023-11-21T06:24:16;7.78;;;2.13;;
71116;SDS011;58775;46.992;9.518;2023-11-21T06:26:17;7.23;;;2.30;;
71116;SDS011;58775;46.992;9.518;2023-11-21T06:28:19;5.40;;;1.80;;
71116;SDS011;58775;46.992;9.518;2023-11-21T06:30:19;7.13;;;2.30;;
71116;SDS011;58775;46.992;9.518;2023-11-21T06:32:21;4.80;;;1.70;;
71116;SDS011;58775;46.992;9.518;2023-11-21T06:34:23;4.88;;;1.85;;
71116;SDS011;58775;46.992;9.518;2023-11-21T06:36:23;8.32;;;1.95;;
71116;SDS011;58775;46.992;9.518;2023-11-21T06:38:24;7.30;;;2.17;;
71116;SDS011;58775;46.992;9.518;2023-11-21T06:40:28;5.68;;;1.83;;
71116;SDS011;58775;46.992;9.518;2023-11-21T06:42:30;7.55;;;2.20;;
71116;SDS011;58775;46.992;9.518;2023-11-21T06:44:31;8.73;;;2.60;;
71116;SDS011;58775;46.992;9.518;2023-11-21T06:46:33;5.80;;;2.22;;
71116;SDS011;58775;46.992;9.518;2023-11-21T06:48:34;6.67;;;2.00;;
71116;SDS011;58775;46.992;9.518;2023-11-21T06:50:35;8.82;;;2.10;;
71116;SDS011;58775;46.992;9.518;2023-11-21T06:52:36;7.13;;;2.28;;
71116;SDS011;58775;46.992;9.518;2023-11-21T06:54:37;6.67;;;1.90;;
71116;SDS011;58775;46.992;9.518;2023-11-21T06:56:38;6.53;;;2.35;;
71116;SDS011;58775;46.992;9.518;2023-11-21T06:58:39;9.27;;;2.87;;
71116;SDS011;58775;46.992;9.518;2023-11-21T07:00:41;12.43;;;3.13;;
71116;SDS011;58775;46.992;9.518;2023-11-21T07:02:46;9.40;;;2.90;;
71116;SDS011;58775;46.992;9.518;2023-11-21T07:04:47;7.50;;;3.05;;
71116;SDS011;58775;46.992;9.518;2023-11-21T07:06:48;9.95;;;3.35;;
71116;SDS011;58775;46.992;9.518;2023-11-21T07:08:49;9.93;;;2.90;;
71116;SDS011;58775;46.992;9.518;2023-11-21T07:10:50;7.47;;;2.60;;
71116;SDS011;58775;46.992;9.518;2023-11-21T07:12:50;6.97;;;2.67;;
71116;SDS011;58775;46.992;9.518;2023-11-21T07:14:51;8.38;;;2.75;;
71116;SDS011;58775;46.992;9.518;2023-11-21T07:16:52;8.80;;;2.77;;
71116;SDS011;58775;46.992;9.518;2023-11-21T07:18:53;5.68;;;2.15;;
71116;SDS011;58775;46.992;9.518;2023-11-21T07:20:55;6.80;;;2.95;;
71116;SDS011;58775;46.992;9.518;2023-11-21T07:22:56;8.20;;;2.60;;
71116;SDS011;58775;46.992;9.518;2023-11-21T07:24:58;10.90;;;3.08;;
71116;SDS011;58775;46.992;9.518;2023-11-21T07:26:58;9.23;;;2.70;;
71116;SDS011;58775;46.992;9.518;2023-11-21T07:29:00;6.25;;;2.50;;
71116;SDS011;58775;46.992;9.518;2023-11-21T07:31:04;10.90;;;3.33;;
71116;SDS011;58775;46.992;9.518;2023-11-21T07:33:05;6.72;;;2.20;;
71116;SDS011;58775;46.992;9.518;2023-11-21T07:35:06;6.32;;;2.10;;
71116;SDS011;58775;46.992;9.518;2023-11-21T07:37:08;8.15;;;3.80;;
71116;SDS011;58775;46.992;9.518;2023-11-21T07:39:09;7.30;;;2.20;;
71116;SDS011;58775;46.992;9.518;2023-11-21T07:41:11;5.25;;;2.08;;
71116;SDS011;58775;46.992;9.518;2023-11-21T07:43:15;10.05;;;2.78;;
71116;SDS011;58775;46.992;9.518;2023-11-21T07:45:16;9.80;;;3.00;;
71116;SDS011;58775;46.992;9.518;2023-11-21T07:47:19;7.20;;;2.67;;
71116;SDS011;58775;46.992;9.518;2023-11-21T07:49:19;6.80;;;2.75;;
71116;SDS011;58775;46.992;9.518;2023-11-21T07:51:21;9.23;;;2.40;;
71116;SDS011;58775;46.992;9.518;2023-11-21T07:53:27;6.95;;;2.42;;
71116;SDS011;58775;46.992;9.518;2023-11-21T07:55:30;7.43;;;2.90;;
71116;SDS011;58775;46.992;9.518;2023-11-21T07:57:32;8.48;;;3.10;;
71116;SDS011;58775;46.992;9.518;2023-11-21T07:59:33;7.90;;;2.47;;
71116;SDS011;58775;46.992;9.518;2023-11-21T08:01:35;5.78;;;2.20;;
71116;SDS011;58775;46.992;9.518;2023-11-21T08:03:36;7.63;;;2.10;;
71116;SDS011;58775;46.992;9.518;2023-11-21T08:05:36;4.93;;;1.93;;
71116;SDS011;58775;46.992;9.518;2023-11-21T08:07:38;7.35;;;2.35;;
71116;SDS011;58775;46.992;9.518;2023-11-21T08:09:42;6.57;;;2.38;;
71116;SDS011;58775;46.992;9.518;2023-11-21T08:12:02;6.35;;;2.28;;
71116;SDS011;58775;46.992;9.518;2023-11-21T08:14:05;8.55;;;2.10;;
71116;SDS011;58775;46.992;9.518;2023-11-21T08:16:06;5.70;;;1.98;;
71116;SDS011;58775;46.992;9.518;2023-11-21T08:18:07;7.00;;;2.22;;
71116;SDS011;58775;46.992;9.518;2023-11-21T08:20:08;8.87;;;2.30;;
71116;SDS011;58775;46.992;9.518;2023-11-21T08:22:11;9.82;;;2.60;;
71116;SDS011;58775;46.992;9.518;2023-11-21T08:24:11;7.40;;;2.60;;
71116;SDS011;58775;46.992;9.518;2023-11-21T08:26:15;5.47;;;2.20;;
71116;SDS011;58775;46.992;9.518;2023-11-21T08:28:17;6.82;;;2.85;;
71116;SDS011;58775;46.992;9.518;2023-11-21T08:30:20;7.25;;;2.20;;
71116;SDS011;58775;46.992;9.518;2023-11-21T08:32:24;6.10;;;2.27;;
71116;SDS011;58775;46.992;9.518;2023-11-21T08:34:25;6.97;;;2.30;;
71116;SDS011;58775;46.992;9.518;2023-11-21T08:36:26;7.70;;;2.60;;
71116;SDS011;58775;46.992;9.518;2023-11-21T08:38:26;7.67;;;2.30;;
71116;SDS011;58775;46.992;9.518;2023-11-21T08:40:29;9.93;;;2.60;;
71116;SDS011;58775;46.992;9.518;2023-11-21T08:42:30;6.78;;;1.92;;
71116;SDS011;58775;46.992;9.518;2023-11-21T08:44:31;5.07;;;1.77;;
71116;SDS011;58775;46.992;9.518;2023-11-21T08:46:32;6.18;;;2.33;;
71116;SDS011;58775;46.992;9.518;2023-11-21T08:48:35;9.45;;;2.40;;
71116;SDS011;58775;46.992;9.518;2023-11-21T08:50:36;5.80;;;1.40;;
71116;SDS011;58775;46.992;9.518;2023-11-21T08:52:38;4.20;;;1.30;;
71116;SDS011;58775;46.992;9.518;2023-11-21T08:54:39;7.15;;;1.50;;
71116;SDS011;58775;46.992;9.518;2023-11-21T08:56:39;4.82;;;1.15;;
71116;SDS011;58775;46.992;9.518;2023-11-21T08:58:40;4.17;;;1.10;;
71116;SDS011;58775;46.992;9.518;2023-11-21T09:00:41;4.82;;;1.10;;
71116;SDS011;58775;46.992;9.518;2023-11-21T09:02:43;3.03;;;0.88;;
71116;SDS011;58775;46.992;9.518;2023-11-21T09:04:44;3.50;;;1.33;;
71116;SDS011;58775;46.992;9.518;2023-11-21T09:06:45;3.93;;;1.10;;
71116;SDS011;58775;46.992;9.518;2023-11-21T09:08:46;1.80;;;0.70;;
71116;SDS011;58775;46.992;9.518;2023-11-21T09:10:47;3.42;;;1.05;;
71116;SDS011;58775;46.992;9.518;2023-11-21T09:12:48;3.38;;;0.95;;
71116;SDS011;58775;46.992;9.518;2023-11-21T09:14:49;4.50;;;0.80;;
71116;SDS011;58775;46.992;9.518;2023-11-21T09:16:50;3.45;;;0.90;;
71116;SDS011;58775;46.992;9.518;2023-11-21T09:18:51;3.53;;;0.90;;
71116;SDS011;58775;46.992;9.518;2023-11-21T09:20:52;3.10;;;0.88;;
71116;SDS011;58775;46.992;9.518;2023-11-21T09:22:53;3.47;;;0.80;;
71116;SDS011;58775;46.992;9.518;2023-11-21T09:25:00;5.18;;;1.15;;
71116;SDS011;58775;46.992;9.518;2023-11-21T09:27:06;6.07;;;0.90;;
71116;SDS011;58775;46.992;9.518;2023-11-21T09:29:07;4.95;;;1.05;;
71116;SDS011;58775;46.992;9.518;2023-11-21T09:31:08;1.77;;;0.93;;
71116;SDS011;58775;46.992;9.518;2023-11-21T09:33:09;2.03;;;0.68;;
71116;SDS011;58775;46.992;9.518;2023-11-21T09:35:11;2.17;;;0.60;;
71116;SDS011;58775;46.992;9.518;2023-11-21T09:37:14;4.50;;;0.90;;
71116;SDS011;58775;46.992;9.518;2023-11-21T09:39:15;3.50;;;0.70;;
71116;SDS011;58775;46.992;9.518;2023-11-21T09:41:19;2.08;;;0.77;;
71116;SDS011;58775;46.992;9.518;2023-11-21T09:43:24;3.20;;;1.00;;
71116;SDS011;58775;46.992;9.518;2023-11-21T09:45:28;5.60;;;1.15;;
71116;SDS011;58775;46.992;9.518;2023-11-21T09:47:35;2.47;;;0.65;;
71116;SDS011;58775;46.992;9.518;2023-11-21T09:49:38;2.10;;;0.60;;
71116;SDS011;58775;46.992;9.518;2023-11-21T09:51:43;1.25;;;0.40;;
71116;SDS011;58775;46.992;9.518;2023-11-21T09:53:44;1.88;;;0.40;;
71116;SDS011;58775;46.992;9.518;2023-11-21T09:55:50;1.33;;;0.60;;
71116;SDS011;58775;46.992;9.518;2023-11-21T09:57:52;1.42;;;0.50;;
71116;SDS011;58775;46.992;9.518;2023-11-21T09:59:54;1.02;;;0.40;;
71116;SDS011;58775;46.992;9.518;2023-11-21T10:02:05;1.65;;;0.55;;
71116;SDS011;58775;46.992;9.518;2023-11-21T10:04:11;4.45;;;0.90;;
71116;SDS011;58775;46.992;9.518;2023-11-21T10:09:01;2.23;;;0.70;;
71116;SDS011;58775;46.992;9.518;2023-11-21T10:11:04;2.78;;;0.80;;
71116;SDS011;58775;46.992;9.518;2023-11-21T10:13:07;1.95;;;0.70;;
71116;SDS011;58775;46.992;9.518;2023-11-21T10:15:12;2.17;;;0.52;;
71116;SDS011;58775;46.992;9.518;2023-11-21T10:17:16;3.22;;;1.02;;
71116;SDS011;58775;46.992;9.518;2023-11-21T10:19:19;3.87;;;1.00;;
71116;SDS011;58775;46.992;9.518;2023-11-21T10:21:21;3.38;;;0.70;;
71116;SDS011;58775;46.992;9.518;2023-11-21T10:23:22;2.30;;;0.77;;
71116;SDS011;58775;46.992;9.518;2023-11-21T10:25:43;2.67;;;0.60;;
71116;SDS011;58775;46.992;9.518;2023-11-21T10:27:46;3.30;;;0.87;;
71116;SDS011;58775;46.992;9.518;2023-11-21T10:29:51;2.08;;;0.70;;
71116;SDS011;58775;46.992;9.518;2023-11-21T10:31:52;2.67;;;0.70;;
71116;SDS011;58775;46.992;9.518;2023-11-21T10:33:57;3.47;;;0.70;;
71116;SDS011;58775;46.992;9.518;2023-11-21T10:36:12;2.53;;;0.77;;
71116;SDS011;58775;46.992;9.518;2023-11-21T10:38:13;2.00;;;0.68;;
71116;SDS011;58775;46.992;9.518;2023-11-21T10:40:14;1.73;;;0.52;;
71116;SDS011;58775;46.992;9.518;2023-11-21T10:42:15;1.73;;;0.67;;
71116;SDS011;58775;46.992;9.518;2023-11-21T10:44:20;3.20;;;0.65;;
71116;SDS011;58775;46.992;9.518;2023-11-21T10:46:23;2.10;;;0.73;;
71116;SDS011;58775;46.992;9.518;2023-11-21T10:48:26;2.22;;;0.98;;
71116;SDS011;58775;46.992;9.518;2023-11-21T10:50:27;3.40;;;1.20;;
71116;SDS011;58775;46.992;9.518;2023-11-21T10:52:28;2.03;;;0.70;;
71116;SDS011;58775;46.992;9.518;2023-11-21T10:54:29;2.70;;;0.52;;
71116;SDS011;58775;46.992;9.518;2023-11-21T10:56:30;3.43;;;0.80;;
71116;SDS011;58775;46.992;9.518;2023-11-21T10:58:35;2.17;;;0.55;;
71116;SDS011;58775;46.992;9.518;2023-11-21T11:00:38;2.63;;;0.80;;
71116;SDS011;58775;46.992;9.518;2023-11-21T11:02:40;2.75;;;0.73;;
71116;SDS011;58775;46.992;9.518;2023-11-21T11:04:42;2.80;;;0.70;;
71116;SDS011;58775;46.992;9.518;2023-11-21T11:06:51;3.05;;;0.80;;
71116;SDS011;58775;46.992;9.518;2023-11-21T11:08:56;2.28;;;0.80;;
71116;SDS011;58775;46.992;9.518;2023-11-21T11:10:57;4.43;;;1.42;;
71116;SDS011;58775;46.992;9.518;2023-11-21T11:12:59;3.30;;;1.17;;
71116;SDS011;58775;46.992;9.518;2023-11-21T11:15:00;3.08;;;1.33;;
71116;SDS011;58775;46.992;9.518;2023-11-21T11:17:03;3.92;;;1.35;;
71116;SDS011;58775;46.992;9.518;2023-11-21T11:19:06;4.10;;;1.60;;
71116;SDS011;58775;46.992;9.518;2023-11-21T11:23:58;4.60;;;1.55;;
71116;SDS011;58775;46.992;9.518;2023-11-21T11:28:27;3.22;;;1.20;;
71116;SDS011;58775;46.992;9.518;2023-11-21T11:33:04;4.75;;;1.70;;
71116;SDS011;58775;46.992;9.518;2023-11-21T11:35:16;3.40;;;1.52;;
71116;SDS011;58775;46.992;9.518;2023-11-21T11:37:23;4.57;;;1.65;;
71116;SDS011;58775;46.992;9.518;2023-11-21T11:39:28;5.10;;;2.00;;
71116;SDS011;58775;46.992;9.518;2023-11-21T11:41:32;5.07;;;2.13;;
71116;SDS011;58775;46.992;9.518;2023-11-21T11:43:35;4.78;;;2.10;;
71116;SDS011;58775;46.992;9.518;2023-11-21T11:45:45;5.10;;;1.80;;
71116;SDS011;58775;46.992;9.518;2023-11-21T11:47:56;4.13;;;1.45;;
71116;SDS011;58775;46.992;9.518;2023-11-21T11:50:01;6.95;;;2.10;;
71116;SDS011;58775;46.992;9.518;2023-11-21T11:54:43;7.03;;;2.17;;
71116;SDS011;58775;46.992;9.518;2023-11-21T11:56:44;4.75;;;1.65;;
71116;SDS011;58775;46.992;9.518;2023-11-21T11:58:47;4.30;;;2.35;;
71116;SDS011;58775;46.992;9.518;2023-11-21T12:00:49;5.25;;;2.72;;
71116;SDS011;58775;46.992;9.518;2023-11-21T12:02:53;4.88;;;2.13;;
71116;SDS011;58775;46.992;9.518;2023-11-21T12:04:57;5.60;;;2.40;;
71116;SDS011;58775;46.992;9.518;2023-11-21T12:06:59;5.93;;;2.20;;
71116;SDS011;58775;46.992;9.518;2023-11-21T12:09:03;4.85;;;2.00;;
71116;SDS011;58775;46.992;9.518;2023-11-21T12:11:08;3.70;;;1.38;;
71116;SDS011;58775;46.992;9.518;2023-11-21T12:13:13;3.97;;;1.40;;
71116;SDS011;58775;46.992;9.518;2023-11-21T12:15:16;3.65;;;1.13;;
71116;SDS011;58775;46.992;9.518;2023-11-21T12:17:17;3.22;;;1.00;;
71116;SDS011;58775;46.992;9.518;2023-11-21T12:19:18;3.28;;;0.85;;
71116;SDS011;58775;46.992;9.518;2023-11-21T12:21:19;3.65;;;0.80;;
71116;SDS011;58775;46.992;9.518;2023-11-21T12:23:22;2.30;;;0.93;;
71116;SDS011;58775;46.992;9.518;2023-11-21T12:25:24;4.10;;;1.02;;
71116;SDS011;58775;46.992;9.518;2023-11-21T12:27:29;3.08;;;0.80;;
71116;SDS011;58775;46.992;9.518;2023-11-21T12:29:30;1.58;;;0.60;;